sensor_id;sensor_type;location;lat;lon;timestamp;temperature;humidity
37232;DHT22;23125;48.156;15.954;2022-10-16T00:01:46;15.80;66.40
37232;DHT22;23125;48.156;15.954;2022-10-16T00:04:12;15.80;66.40
37232;DHT22;23125;48.156;15.954;2022-10-16T00:06:39;15.80;66.50
37232;DHT22;23125;48.156;15.954;2022-10-16T00:09:05;15.80;66.50
37232;DHT22;23125;48.156;15.954;2022-10-16T00:11:33;15.80;66.50
37232;DHT22;23125;48.156;15.954;2022-10-16T00:14:04;15.80;66.40
37232;DHT22;23125;48.156;15.954;2022-10-16T00:16:31;15.80;66.40
37232;DHT22;23125;48.156;15.954;2022-10-16T00:18:58;15.80;66.20
37232;DHT22;23125;48.156;15.954;2022-10-16T00:21:27;15.70;66.10
37232;DHT22;23125;48.156;15.954;2022-10-16T00:23:58;15.70;66.10
37232;DHT22;23125;48.156;15.954;2022-10-16T00:26:25;15.70;66.10
37232;DHT22;23125;48.156;15.954;2022-10-16T00:28:52;15.70;66.10
37232;DHT22;23125;48.156;15.954;2022-10-16T00:31:20;15.70;66.20
37232;DHT22;23125;48.156;15.954;2022-10-16T00:33:46;15.60;66.20
37232;DHT22;23125;48.156;15.954;2022-10-16T00:36:15;15.60;66.20
37232;DHT22;23125;48.156;15.954;2022-10-16T00:38:42;15.60;66.40
37232;DHT22;23125;48.156;15.954;2022-10-16T00:41:11;15.60;66.50
37232;DHT22;23125;48.156;15.954;2022-10-16T00:43:46;15.60;66.60
37232;DHT22;23125;48.156;15.954;2022-10-16T00:46:19;15.60;66.70
37232;DHT22;23125;48.156;15.954;2022-10-16T00:48:57;15.60;66.70
37232;DHT22;23125;48.156;15.954;2022-10-16T00:51:39;15.60;66.60
37232;DHT22;23125;48.156;15.954;2022-10-16T00:54:18;15.60;66.60
37232;DHT22;23125;48.156;15.954;2022-10-16T00:56:46;15.60;66.60
37232;DHT22;23125;48.156;15.954;2022-10-16T00:59:27;15.60;66.60
37232;DHT22;23125;48.156;15.954;2022-10-16T01:01:55;15.50;66.50
37232;DHT22;23125;48.156;15.954;2022-10-16T01:04:23;15.50;66.50
37232;DHT22;23125;48.156;15.954;2022-10-16T01:12:16;15.50;66.50
37232;DHT22;23125;48.156;15.954;2022-10-16T01:15:00;15.50;66.50
37232;DHT22;23125;48.156;15.954;2022-10-16T01:26:11;15.40;66.90
37232;DHT22;23125;48.156;15.954;2022-10-16T01:31:22;15.40;67.10
37232;DHT22;23125;48.156;15.954;2022-10-16T01:34:10;15.40;67.10
37232;DHT22;23125;48.156;15.954;2022-10-16T01:37:04;15.50;67.30
37232;DHT22;23125;48.156;15.954;2022-10-16T01:39:31;15.50;67.30
37232;DHT22;23125;48.156;15.954;2022-10-16T01:42:04;15.50;67.40
37232;DHT22;23125;48.156;15.954;2022-10-16T01:44:32;15.50;67.40
37232;DHT22;23125;48.156;15.954;2022-10-16T01:47:00;15.50;67.40
37232;DHT22;23125;48.156;15.954;2022-10-16T01:49:34;15.50;67.50
37232;DHT22;23125;48.156;15.954;2022-10-16T01:52:06;15.60;67.60
37232;DHT22;23125;48.156;15.954;2022-10-16T01:54:35;15.60;67.60
37232;DHT22;23125;48.156;15.954;2022-10-16T01:57:05;15.60;67.70
37232;DHT22;23125;48.156;15.954;2022-10-16T01:59:35;15.60;67.70
37232;DHT22;23125;48.156;15.954;2022-10-16T02:02:07;15.60;67.60
37232;DHT22;23125;48.156;15.954;2022-10-16T02:04:39;15.60;68.30
37232;DHT22;23125;48.156;15.954;2022-10-16T02:07:07;15.60;67.70
37232;DHT22;23125;48.156;15.954;2022-10-16T02:09:33;15.70;67.60
37232;DHT22;23125;48.156;15.954;2022-10-16T02:12:06;15.70;67.60
37232;DHT22;23125;48.156;15.954;2022-10-16T02:14:35;15.60;67.50
37232;DHT22;23125;48.156;15.954;2022-10-16T02:17:14;15.60;67.50
37232;DHT22;23125;48.156;15.954;2022-10-16T02:19:40;15.60;67.60
37232;DHT22;23125;48.156;15.954;2022-10-16T02:22:09;15.60;67.60
37232;DHT22;23125;48.156;15.954;2022-10-16T02:30:13;15.70;67.90
37232;DHT22;23125;48.156;15.954;2022-10-16T02:32:43;15.70;67.90
37232;DHT22;23125;48.156;15.954;2022-10-16T02:35:10;15.70;67.90
37232;DHT22;23125;48.156;15.954;2022-10-16T02:37:37;15.70;67.90
37232;DHT22;23125;48.156;15.954;2022-10-16T02:40:05;15.70;68.00
37232;DHT22;23125;48.156;15.954;2022-10-16T02:42:36;15.70;68.00
37232;DHT22;23125;48.156;15.954;2022-10-16T02:45:04;15.70;68.00
37232;DHT22;23125;48.156;15.954;2022-10-16T02:47:30;15.70;68.00
37232;DHT22;23125;48.156;15.954;2022-10-16T02:49:56;15.70;68.10
37232;DHT22;23125;48.156;15.954;2022-10-16T02:52:22;15.70;68.10
37232;DHT22;23125;48.156;15.954;2022-10-16T02:54:48;15.70;68.10
37232;DHT22;23125;48.156;15.954;2022-10-16T02:57:13;15.80;68.20
37232;DHT22;23125;48.156;15.954;2022-10-16T02:59:39;15.80;68.20
37232;DHT22;23125;48.156;15.954;2022-10-16T03:02:05;15.80;68.10
37232;DHT22;23125;48.156;15.954;2022-10-16T03:04:31;15.70;67.90
37232;DHT22;23125;48.156;15.954;2022-10-16T03:06:57;15.70;67.90
37232;DHT22;23125;48.156;15.954;2022-10-16T03:09:23;15.80;67.90
37232;DHT22;23125;48.156;15.954;2022-10-16T03:11:49;15.80;67.80
37232;DHT22;23125;48.156;15.954;2022-10-16T03:14:14;15.70;67.70
37232;DHT22;23125;48.156;15.954;2022-10-16T03:16:40;15.70;67.70
37232;DHT22;23125;48.156;15.954;2022-10-16T03:19:06;15.70;67.60
37232;DHT22;23125;48.156;15.954;2022-10-16T03:21:32;15.70;67.60
37232;DHT22;23125;48.156;15.954;2022-10-16T03:23:58;15.70;67.50
37232;DHT22;23125;48.156;15.954;2022-10-16T03:26:23;15.60;67.50
37232;DHT22;23125;48.156;15.954;2022-10-16T03:28:49;15.60;67.50
37232;DHT22;23125;48.156;15.954;2022-10-16T03:31:15;15.60;67.60
37232;DHT22;23125;48.156;15.954;2022-10-16T03:33:41;15.60;67.60
37232;DHT22;23125;48.156;15.954;2022-10-16T03:36:07;15.60;68.40
37232;DHT22;23125;48.156;15.954;2022-10-16T03:38:33;15.60;67.80
37232;DHT22;23125;48.156;15.954;2022-10-16T03:40:58;15.50;67.90
37232;DHT22;23125;48.156;15.954;2022-10-16T03:43:24;15.50;67.90
37232;DHT22;23125;48.156;15.954;2022-10-16T03:45:51;15.50;68.00
37232;DHT22;23125;48.156;15.954;2022-10-16T03:48:18;15.50;68.10
37232;DHT22;23125;48.156;15.954;2022-10-16T03:50:44;15.50;68.20
37232;DHT22;23125;48.156;15.954;2022-10-16T03:53:10;15.50;68.30
37232;DHT22;23125;48.156;15.954;2022-10-16T03:55:36;15.50;68.30
37232;DHT22;23125;48.156;15.954;2022-10-16T03:58:02;15.50;68.30
37232;DHT22;23125;48.156;15.954;2022-10-16T04:00:28;15.50;68.30
37232;DHT22;23125;48.156;15.954;2022-10-16T04:02:54;15.60;68.40
37232;DHT22;23125;48.156;15.954;2022-10-16T04:05:20;15.60;68.20
37232;DHT22;23125;48.156;15.954;2022-10-16T04:07:46;15.60;68.20
37232;DHT22;23125;48.156;15.954;2022-10-16T04:10:12;15.60;68.20
37232;DHT22;23125;48.156;15.954;2022-10-16T04:12:38;15.50;68.20
37232;DHT22;23125;48.156;15.954;2022-10-16T04:15:04;15.60;68.20
37232;DHT22;23125;48.156;15.954;2022-10-16T04:17:29;15.50;68.20
37232;DHT22;23125;48.156;15.954;2022-10-16T04:19:55;15.50;68.20
37232;DHT22;23125;48.156;15.954;2022-10-16T04:22:21;15.50;68.10
37232;DHT22;23125;48.156;15.954;2022-10-16T04:24:47;15.50;68.10
37232;DHT22;23125;48.156;15.954;2022-10-16T04:27:13;15.50;68.00
37232;DHT22;23125;48.156;15.954;2022-10-16T04:29:38;15.50;67.90
37232;DHT22;23125;48.156;15.954;2022-10-16T04:32:04;15.50;67.90
37232;DHT22;23125;48.156;15.954;2022-10-16T04:34:30;15.40;67.80
37232;DHT22;23125;48.156;15.954;2022-10-16T04:36:56;15.40;67.80
37232;DHT22;23125;48.156;15.954;2022-10-16T04:39:22;15.40;67.80
37232;DHT22;23125;48.156;15.954;2022-10-16T04:41:48;15.40;67.90
37232;DHT22;23125;48.156;15.954;2022-10-16T04:44:13;15.40;67.90
37232;DHT22;23125;48.156;15.954;2022-10-16T04:46:39;15.40;68.00
37232;DHT22;23125;48.156;15.954;2022-10-16T04:49:05;15.40;68.00
37232;DHT22;23125;48.156;15.954;2022-10-16T04:51:31;15.40;68.10
37232;DHT22;23125;48.156;15.954;2022-10-16T04:53:57;15.30;68.10
37232;DHT22;23125;48.156;15.954;2022-10-16T04:56:23;15.30;68.30
37232;DHT22;23125;48.156;15.954;2022-10-16T04:58:49;15.40;68.40
37232;DHT22;23125;48.156;15.954;2022-10-16T05:01:15;15.40;68.40
37232;DHT22;23125;48.156;15.954;2022-10-16T05:03:41;15.40;68.50
37232;DHT22;23125;48.156;15.954;2022-10-16T05:06:07;15.40;68.60
37232;DHT22;23125;48.156;15.954;2022-10-16T05:08:33;15.30;68.60
37232;DHT22;23125;48.156;15.954;2022-10-16T05:10:59;15.40;68.80
37232;DHT22;23125;48.156;15.954;2022-10-16T05:13:26;15.40;68.90
37232;DHT22;23125;48.156;15.954;2022-10-16T05:15:52;15.40;68.90
37232;DHT22;23125;48.156;15.954;2022-10-16T05:18:17;15.40;68.90
37232;DHT22;23125;48.156;15.954;2022-10-16T05:20:43;15.40;68.90
37232;DHT22;23125;48.156;15.954;2022-10-16T05:23:09;15.50;69.00
37232;DHT22;23125;48.156;15.954;2022-10-16T05:25:38;15.50;69.00
37232;DHT22;23125;48.156;15.954;2022-10-16T05:28:04;15.50;69.00
37232;DHT22;23125;48.156;15.954;2022-10-16T05:30:29;15.50;69.00
37232;DHT22;23125;48.156;15.954;2022-10-16T05:32:55;15.50;69.00
37232;DHT22;23125;48.156;15.954;2022-10-16T05:35:22;15.50;69.00
37232;DHT22;23125;48.156;15.954;2022-10-16T05:37:48;15.50;69.00
37232;DHT22;23125;48.156;15.954;2022-10-16T05:40:14;15.60;69.10
37232;DHT22;23125;48.156;15.954;2022-10-16T05:42:41;15.60;69.20
37232;DHT22;23125;48.156;15.954;2022-10-16T05:45:09;15.60;69.30
37232;DHT22;23125;48.156;15.954;2022-10-16T05:47:35;15.60;69.40
37232;DHT22;23125;48.156;15.954;2022-10-16T05:50:02;15.70;69.70
37232;DHT22;23125;48.156;15.954;2022-10-16T05:52:29;15.70;69.90
37232;DHT22;23125;48.156;15.954;2022-10-16T05:54:55;15.70;70.00
37232;DHT22;23125;48.156;15.954;2022-10-16T05:57:21;15.80;70.00
37232;DHT22;23125;48.156;15.954;2022-10-16T05:59:47;15.80;70.00
37232;DHT22;23125;48.156;15.954;2022-10-16T06:02:13;15.90;70.10
37232;DHT22;23125;48.156;15.954;2022-10-16T06:04:40;15.90;70.10
37232;DHT22;23125;48.156;15.954;2022-10-16T06:07:05;16.00;70.20
37232;DHT22;23125;48.156;15.954;2022-10-16T06:09:31;16.00;70.40
37232;DHT22;23125;48.156;15.954;2022-10-16T06:11:57;16.00;70.90
37232;DHT22;23125;48.156;15.954;2022-10-16T06:14:24;16.10;70.00
37232;DHT22;23125;48.156;15.954;2022-10-16T06:16:49;16.10;69.80
37232;DHT22;23125;48.156;15.954;2022-10-16T06:19:15;16.10;69.70
37232;DHT22;23125;48.156;15.954;2022-10-16T06:21:43;16.10;69.80
37232;DHT22;23125;48.156;15.954;2022-10-16T06:24:10;16.10;69.80
37232;DHT22;23125;48.156;15.954;2022-10-16T06:26:36;16.10;69.80
37232;DHT22;23125;48.156;15.954;2022-10-16T06:29:02;16.10;69.90
37232;DHT22;23125;48.156;15.954;2022-10-16T06:31:29;16.20;69.90
37232;DHT22;23125;48.156;15.954;2022-10-16T06:33:57;16.20;69.90
37232;DHT22;23125;48.156;15.954;2022-10-16T06:36:24;16.20;70.50
37232;DHT22;23125;48.156;15.954;2022-10-16T06:38:50;16.30;70.70
37232;DHT22;23125;48.156;15.954;2022-10-16T06:41:19;16.40;71.10
37232;DHT22;23125;48.156;15.954;2022-10-16T06:43:45;16.50;72.20
37232;DHT22;23125;48.156;15.954;2022-10-16T06:46:14;16.70;72.90
37232;DHT22;23125;48.156;15.954;2022-10-16T06:48:40;16.80;73.00
37232;DHT22;23125;48.156;15.954;2022-10-16T06:51:12;17.00;73.60
37232;DHT22;23125;48.156;15.954;2022-10-16T06:53:41;17.20;74.10
37232;DHT22;23125;48.156;15.954;2022-10-16T06:58:34;17.60;73.90
37232;DHT22;23125;48.156;15.954;2022-10-16T07:01:00;17.90;74.60
37232;DHT22;23125;48.156;15.954;2022-10-16T07:03:26;18.20;75.90
37232;DHT22;23125;48.156;15.954;2022-10-16T07:05:52;18.60;76.10
37232;DHT22;23125;48.156;15.954;2022-10-16T07:08:18;19.00;76.20
37232;DHT22;23125;48.156;15.954;2022-10-16T07:10:43;19.50;76.60
37232;DHT22;23125;48.156;15.954;2022-10-16T07:13:09;20.00;76.50
37232;DHT22;23125;48.156;15.954;2022-10-16T07:15:38;20.50;76.00
37232;DHT22;23125;48.156;15.954;2022-10-16T07:18:04;20.90;74.20
37232;DHT22;23125;48.156;15.954;2022-10-16T07:20:30;21.10;72.30
37232;DHT22;23125;48.156;15.954;2022-10-16T07:22:56;21.60;73.00
37232;DHT22;23125;48.156;15.954;2022-10-16T07:25:22;22.00;72.80
37232;DHT22;23125;48.156;15.954;2022-10-16T07:27:48;22.40;71.80
37232;DHT22;23125;48.156;15.954;2022-10-16T07:30:13;22.80;70.70
37232;DHT22;23125;48.156;15.954;2022-10-16T07:32:40;23.20;69.70
37232;DHT22;23125;48.156;15.954;2022-10-16T07:35:06;23.60;68.80
37232;DHT22;23125;48.156;15.954;2022-10-16T07:37:32;24.00;67.80
37232;DHT22;23125;48.156;15.954;2022-10-16T07:39:58;24.40;66.70
37232;DHT22;23125;48.156;15.954;2022-10-16T07:42:24;24.70;65.30
37232;DHT22;23125;48.156;15.954;2022-10-16T07:44:50;25.00;64.40
37232;DHT22;23125;48.156;15.954;2022-10-16T07:47:15;25.40;63.90
37232;DHT22;23125;48.156;15.954;2022-10-16T07:49:41;25.80;63.10
37232;DHT22;23125;48.156;15.954;2022-10-16T07:52:07;26.20;62.00
37232;DHT22;23125;48.156;15.954;2022-10-16T07:54:33;26.50;61.10
37232;DHT22;23125;48.156;15.954;2022-10-16T07:56:59;26.80;60.40
37232;DHT22;23125;48.156;15.954;2022-10-16T07:59:25;27.20;59.50
37232;DHT22;23125;48.156;15.954;2022-10-16T08:01:50;27.50;58.70
37232;DHT22;23125;48.156;15.954;2022-10-16T08:04:16;27.80;57.90
37232;DHT22;23125;48.156;15.954;2022-10-16T08:06:42;28.10;57.40
37232;DHT22;23125;48.156;15.954;2022-10-16T08:09:08;28.40;56.90
37232;DHT22;23125;48.156;15.954;2022-10-16T08:11:34;28.60;56.10
37232;DHT22;23125;48.156;15.954;2022-10-16T08:14:00;28.90;55.60
37232;DHT22;23125;48.156;15.954;2022-10-16T08:16:27;29.20;55.20
37232;DHT22;23125;48.156;15.954;2022-10-16T08:18:52;29.40;54.70
37232;DHT22;23125;48.156;15.954;2022-10-16T08:21:20;29.70;54.10
37232;DHT22;23125;48.156;15.954;2022-10-16T08:23:49;29.90;53.60
37232;DHT22;23125;48.156;15.954;2022-10-16T08:26:15;30.10;53.10
37232;DHT22;23125;48.156;15.954;2022-10-16T08:28:41;30.40;52.80
37232;DHT22;23125;48.156;15.954;2022-10-16T08:31:15;30.60;52.40
37232;DHT22;23125;48.156;15.954;2022-10-16T08:33:43;30.80;51.70
37232;DHT22;23125;48.156;15.954;2022-10-16T08:36:11;31.00;51.30
37232;DHT22;23125;48.156;15.954;2022-10-16T08:38:38;31.20;51.00
37232;DHT22;23125;48.156;15.954;2022-10-16T08:44:03;31.50;50.20
37232;DHT22;23125;48.156;15.954;2022-10-16T08:49:27;31.80;49.70
37232;DHT22;23125;48.156;15.954;2022-10-16T08:51:53;31.90;49.10
37232;DHT22;23125;48.156;15.954;2022-10-16T08:54:42;32.00;48.70
37232;DHT22;23125;48.156;15.954;2022-10-16T08:57:22;32.10;48.80
37232;DHT22;23125;48.156;15.954;2022-10-16T08:59:51;32.20;48.00
37232;DHT22;23125;48.156;15.954;2022-10-16T09:15:46;32.50;45.70
37232;DHT22;23125;48.156;15.954;2022-10-16T09:18:38;32.50;45.30
37232;DHT22;23125;48.156;15.954;2022-10-16T09:21:25;32.60;45.30
37232;DHT22;23125;48.156;15.954;2022-10-16T09:23:52;32.60;44.80
37232;DHT22;23125;48.156;15.954;2022-10-16T09:26:19;32.60;44.30
37232;DHT22;23125;48.156;15.954;2022-10-16T09:28:47;32.60;44.10
37232;DHT22;23125;48.156;15.954;2022-10-16T09:31:19;32.70;43.90
37232;DHT22;23125;48.156;15.954;2022-10-16T09:33:50;32.60;43.50
37232;DHT22;23125;48.156;15.954;2022-10-16T09:36:17;32.60;43.40
37232;DHT22;23125;48.156;15.954;2022-10-16T09:38:44;32.60;43.20
37232;DHT22;23125;48.156;15.954;2022-10-16T09:41:17;32.60;42.90
37232;DHT22;23125;48.156;15.954;2022-10-16T09:43:57;32.70;42.70
37232;DHT22;23125;48.156;15.954;2022-10-16T09:46:28;32.70;42.40
37232;DHT22;23125;48.156;15.954;2022-10-16T09:49:00;32.70;42.00
37232;DHT22;23125;48.156;15.954;2022-10-16T09:51:37;32.60;41.80
37232;DHT22;23125;48.156;15.954;2022-10-16T09:56:36;32.60;41.70
37232;DHT22;23125;48.156;15.954;2022-10-16T09:59:15;32.70;41.70
37232;DHT22;23125;48.156;15.954;2022-10-16T10:01:49;32.70;41.70
37232;DHT22;23125;48.156;15.954;2022-10-16T10:04:17;32.80;41.50
37232;DHT22;23125;48.156;15.954;2022-10-16T10:09:37;32.90;41.30
37232;DHT22;23125;48.156;15.954;2022-10-16T10:12:17;32.90;41.10
37232;DHT22;23125;48.156;15.954;2022-10-16T10:15:06;33.00;41.00
37232;DHT22;23125;48.156;15.954;2022-10-16T10:17:33;33.00;41.10
37232;DHT22;23125;48.156;15.954;2022-10-16T10:22:45;33.20;40.90
37232;DHT22;23125;48.156;15.954;2022-10-16T10:27:40;33.20;40.40
37232;DHT22;23125;48.156;15.954;2022-10-16T10:30:23;33.20;40.30
37232;DHT22;23125;48.156;15.954;2022-10-16T10:33:12;33.20;40.20
37232;DHT22;23125;48.156;15.954;2022-10-16T10:35:47;33.20;40.10
37232;DHT22;23125;48.156;15.954;2022-10-16T10:41:30;33.20;40.00
37232;DHT22;23125;48.156;15.954;2022-10-16T10:44:16;33.20;40.10
37232;DHT22;23125;48.156;15.954;2022-10-16T10:46:56;33.20;40.00
37232;DHT22;23125;48.156;15.954;2022-10-16T10:55:16;32.90;39.50
37232;DHT22;23125;48.156;15.954;2022-10-16T11:05:42;32.10;39.20
37232;DHT22;23125;48.156;15.954;2022-10-16T11:08:22;31.90;39.30
37232;DHT22;23125;48.156;15.954;2022-10-16T11:10:54;31.60;39.40
37232;DHT22;23125;48.156;15.954;2022-10-16T11:13:28;31.30;39.40
37232;DHT22;23125;48.156;15.954;2022-10-16T11:15:59;31.00;39.50
37232;DHT22;23125;48.156;15.954;2022-10-16T11:18:35;30.80;39.90
37232;DHT22;23125;48.156;15.954;2022-10-16T11:21:10;30.50;40.20
37232;DHT22;23125;48.156;15.954;2022-10-16T11:26:26;30.10;40.60
37232;DHT22;23125;48.156;15.954;2022-10-16T11:28:55;29.80;40.90
37232;DHT22;23125;48.156;15.954;2022-10-16T11:31:38;29.60;41.20
37232;DHT22;23125;48.156;15.954;2022-10-16T11:34:34;29.40;41.50
37232;DHT22;23125;48.156;15.954;2022-10-16T11:37:41;29.20;41.90
37232;DHT22;23125;48.156;15.954;2022-10-16T11:40:27;29.00;42.20
37232;DHT22;23125;48.156;15.954;2022-10-16T11:42:59;28.70;42.30
37232;DHT22;23125;48.156;15.954;2022-10-16T11:51:40;28.30;43.00
37232;DHT22;23125;48.156;15.954;2022-10-16T11:57:12;27.90;43.80
37232;DHT22;23125;48.156;15.954;2022-10-16T12:05:58;27.50;44.50
37232;DHT22;23125;48.156;15.954;2022-10-16T12:08:28;27.30;44.70
37232;DHT22;23125;48.156;15.954;2022-10-16T12:11:19;27.20;45.10
37232;DHT22;23125;48.156;15.954;2022-10-16T12:13:46;27.10;45.50
37232;DHT22;23125;48.156;15.954;2022-10-16T12:18:40;26.90;45.90
37232;DHT22;23125;48.156;15.954;2022-10-16T12:21:07;26.80;46.00
37232;DHT22;23125;48.156;15.954;2022-10-16T12:23:59;26.70;46.30
37232;DHT22;23125;48.156;15.954;2022-10-16T12:26:38;26.60;46.60
37232;DHT22;23125;48.156;15.954;2022-10-16T12:31:45;26.40;47.20
37232;DHT22;23125;48.156;15.954;2022-10-16T12:34:27;26.30;47.20
37232;DHT22;23125;48.156;15.954;2022-10-16T12:36:54;26.20;48.10
37232;DHT22;23125;48.156;15.954;2022-10-16T12:39:24;26.10;47.80
37232;DHT22;23125;48.156;15.954;2022-10-16T12:42:21;26.00;47.70
37232;DHT22;23125;48.156;15.954;2022-10-16T12:44:47;25.90;47.80
37232;DHT22;23125;48.156;15.954;2022-10-16T12:47:35;25.90;47.90
37232;DHT22;23125;48.156;15.954;2022-10-16T12:50:03;25.80;48.40
37232;DHT22;23125;48.156;15.954;2022-10-16T12:52:38;25.80;48.50
37232;DHT22;23125;48.156;15.954;2022-10-16T12:55:12;25.70;48.70
37232;DHT22;23125;48.156;15.954;2022-10-16T13:00:44;25.60;48.90
37232;DHT22;23125;48.156;15.954;2022-10-16T13:17:14;25.10;49.00
37232;DHT22;23125;48.156;15.954;2022-10-16T13:23:10;25.10;49.50
37232;DHT22;23125;48.156;15.954;2022-10-16T13:28:19;25.00;49.50
37232;DHT22;23125;48.156;15.954;2022-10-16T13:30:54;24.90;49.60
37232;DHT22;23125;48.156;15.954;2022-10-16T13:33:41;24.90;50.00
37232;DHT22;23125;48.156;15.954;2022-10-16T13:36:19;24.90;50.00
37232;DHT22;23125;48.156;15.954;2022-10-16T13:38:46;24.90;50.10
37232;DHT22;23125;48.156;15.954;2022-10-16T13:41:17;24.90;50.00
37232;DHT22;23125;48.156;15.954;2022-10-16T13:43:52;24.80;50.00
37232;DHT22;23125;48.156;15.954;2022-10-16T13:46:23;24.70;50.00
37232;DHT22;23125;48.156;15.954;2022-10-16T13:49:00;24.70;50.20
37232;DHT22;23125;48.156;15.954;2022-10-16T13:51:27;24.60;50.30
37232;DHT22;23125;48.156;15.954;2022-10-16T13:53:55;24.60;50.50
37232;DHT22;23125;48.156;15.954;2022-10-16T13:56:25;24.50;50.60
37232;DHT22;23125;48.156;15.954;2022-10-16T13:59:05;24.50;50.90
37232;DHT22;23125;48.156;15.954;2022-10-16T14:01:32;24.40;51.00
37232;DHT22;23125;48.156;15.954;2022-10-16T14:04:07;24.40;51.10
37232;DHT22;23125;48.156;15.954;2022-10-16T14:06:35;24.30;51.20
37232;DHT22;23125;48.156;15.954;2022-10-16T14:09:14;24.30;51.50
37232;DHT22;23125;48.156;15.954;2022-10-16T14:12:00;24.30;51.60
37232;DHT22;23125;48.156;15.954;2022-10-16T14:14:40;24.30;51.80
37232;DHT22;23125;48.156;15.954;2022-10-16T14:17:14;24.30;51.90
37232;DHT22;23125;48.156;15.954;2022-10-16T14:19:40;24.30;52.00
37232;DHT22;23125;48.156;15.954;2022-10-16T14:22:34;24.30;52.10
37232;DHT22;23125;48.156;15.954;2022-10-16T14:28:19;24.30;52.20
37232;DHT22;23125;48.156;15.954;2022-10-16T14:36:17;24.20;52.30
37232;DHT22;23125;48.156;15.954;2022-10-16T14:39:06;24.10;52.90
37232;DHT22;23125;48.156;15.954;2022-10-16T14:41:44;24.10;52.50
37232;DHT22;23125;48.156;15.954;2022-10-16T14:44:12;24.10;52.60
37232;DHT22;23125;48.156;15.954;2022-10-16T14:46:40;24.00;52.60
37232;DHT22;23125;48.156;15.954;2022-10-16T14:51:37;24.00;52.90
37232;DHT22;23125;48.156;15.954;2022-10-16T14:54:03;23.90;52.80
37232;DHT22;23125;48.156;15.954;2022-10-16T14:56:34;23.90;53.10
37232;DHT22;23125;48.156;15.954;2022-10-16T14:59:12;23.90;53.20
37232;DHT22;23125;48.156;15.954;2022-10-16T15:01:40;23.90;53.20
37232;DHT22;23125;48.156;15.954;2022-10-16T15:04:09;23.80;53.20
37232;DHT22;23125;48.156;15.954;2022-10-16T15:06:37;23.80;53.40
37232;DHT22;23125;48.156;15.954;2022-10-16T15:09:04;23.80;53.70
37232;DHT22;23125;48.156;15.954;2022-10-16T15:11:31;23.70;53.70
37232;DHT22;23125;48.156;15.954;2022-10-16T15:13:58;23.80;53.90
37232;DHT22;23125;48.156;15.954;2022-10-16T15:16:24;23.80;53.90
37232;DHT22;23125;48.156;15.954;2022-10-16T15:18:50;23.70;53.90
37232;DHT22;23125;48.156;15.954;2022-10-16T15:21:34;23.80;54.10
37232;DHT22;23125;48.156;15.954;2022-10-16T15:24:00;23.70;53.90
37232;DHT22;23125;48.156;15.954;2022-10-16T15:26:28;23.70;53.80
37232;DHT22;23125;48.156;15.954;2022-10-16T15:28:54;23.60;53.90
37232;DHT22;23125;48.156;15.954;2022-10-16T15:31:21;23.60;54.00
37232;DHT22;23125;48.156;15.954;2022-10-16T15:33:51;23.60;54.10
37232;DHT22;23125;48.156;15.954;2022-10-16T15:36:27;23.60;54.00
37232;DHT22;23125;48.156;15.954;2022-10-16T15:38:54;23.50;54.00
37232;DHT22;23125;48.156;15.954;2022-10-16T15:41:20;23.50;54.10
37232;DHT22;23125;48.156;15.954;2022-10-16T15:43:49;23.50;54.10
37232;DHT22;23125;48.156;15.954;2022-10-16T15:46:19;23.40;54.20
37232;DHT22;23125;48.156;15.954;2022-10-16T15:48:46;23.40;54.30
37232;DHT22;23125;48.156;15.954;2022-10-16T15:51:12;23.40;54.30
37232;DHT22;23125;48.156;15.954;2022-10-16T15:53:38;23.30;54.30
37232;DHT22;23125;48.156;15.954;2022-10-16T15:56:06;23.30;54.30
37232;DHT22;23125;48.156;15.954;2022-10-16T15:58:32;23.20;54.40
37232;DHT22;23125;48.156;15.954;2022-10-16T16:00:59;23.20;54.40
37232;DHT22;23125;48.156;15.954;2022-10-16T16:03:30;23.20;54.40
37232;DHT22;23125;48.156;15.954;2022-10-16T16:05:56;23.10;54.50
37232;DHT22;23125;48.156;15.954;2022-10-16T16:08:22;23.10;54.50
37232;DHT22;23125;48.156;15.954;2022-10-16T16:11:03;23.00;54.50
37232;DHT22;23125;48.156;15.954;2022-10-16T16:13:29;23.00;54.60
37232;DHT22;23125;48.156;15.954;2022-10-16T16:15:55;22.90;54.60
37232;DHT22;23125;48.156;15.954;2022-10-16T16:18:21;22.80;54.60
37232;DHT22;23125;48.156;15.954;2022-10-16T16:20:48;22.80;54.70
37232;DHT22;23125;48.156;15.954;2022-10-16T16:23:14;22.80;54.80
37232;DHT22;23125;48.156;15.954;2022-10-16T16:25:40;22.70;54.90
37232;DHT22;23125;48.156;15.954;2022-10-16T16:28:05;22.60;54.90
37232;DHT22;23125;48.156;15.954;2022-10-16T16:30:32;22.60;55.00
37232;DHT22;23125;48.156;15.954;2022-10-16T16:32:58;22.60;54.90
37232;DHT22;23125;48.156;15.954;2022-10-16T16:35:24;22.50;55.00
37232;DHT22;23125;48.156;15.954;2022-10-16T16:37:50;22.40;54.90
37232;DHT22;23125;48.156;15.954;2022-10-16T16:40:16;22.40;55.00
37232;DHT22;23125;48.156;15.954;2022-10-16T16:42:41;22.30;55.10
37232;DHT22;23125;48.156;15.954;2022-10-16T16:45:08;22.20;55.20
37232;DHT22;23125;48.156;15.954;2022-10-16T16:47:34;22.20;55.20
37232;DHT22;23125;48.156;15.954;2022-10-16T16:50:00;22.10;55.50
37232;DHT22;23125;48.156;15.954;2022-10-16T16:52:30;22.10;55.60
37232;DHT22;23125;48.156;15.954;2022-10-16T16:54:56;22.00;55.80
37232;DHT22;23125;48.156;15.954;2022-10-16T16:57:22;22.00;55.90
37232;DHT22;23125;48.156;15.954;2022-10-16T16:59:50;22.00;56.10
37232;DHT22;23125;48.156;15.954;2022-10-16T17:02:17;21.90;56.10
37232;DHT22;23125;48.156;15.954;2022-10-16T17:04:43;21.90;56.20
37232;DHT22;23125;48.156;15.954;2022-10-16T17:07:08;21.80;56.20
37232;DHT22;23125;48.156;15.954;2022-10-16T17:09:34;21.80;56.30
37232;DHT22;23125;48.156;15.954;2022-10-16T17:12:00;21.80;56.50
37232;DHT22;23125;48.156;15.954;2022-10-16T17:14:26;21.70;56.50
37232;DHT22;23125;48.156;15.954;2022-10-16T17:16:52;21.70;56.60
37232;DHT22;23125;48.156;15.954;2022-10-16T17:19:19;21.70;56.70
37232;DHT22;23125;48.156;15.954;2022-10-16T17:21:49;21.70;56.70
37232;DHT22;23125;48.156;15.954;2022-10-16T17:24:15;21.70;56.80
37232;DHT22;23125;48.156;15.954;2022-10-16T17:26:43;21.60;56.80
37232;DHT22;23125;48.156;15.954;2022-10-16T17:29:14;21.60;56.90
37232;DHT22;23125;48.156;15.954;2022-10-16T17:31:41;21.60;57.00
37232;DHT22;23125;48.156;15.954;2022-10-16T17:34:08;21.60;57.10
37232;DHT22;23125;48.156;15.954;2022-10-16T17:36:37;21.50;57.00
37232;DHT22;23125;48.156;15.954;2022-10-16T17:39:06;21.50;57.00